Meadow, Utah
Current Conditions -  °F | °C
As of 7:15 AM on Thursday 30 Oct 2014 (Local Time) from KDTA Reporting Station
Clear Clear  
Wind Chill: 34°   Ceiling: Unl
Heat Index: 34°   Visibility: 10mi
Dew Point: 20°   Wind: 3mph
Humidity: 57%   Direction: 80°E
Pressure: 30.26"   Gusts: NA
Location:  38.89°N, 112.41°W
Report Text: KDTA 301315Z AUTO 08003KT 10SM CLR 01/M06 A3026 RMK AO1 T00131065
Loading
Personal Weather Stations






























Interactive Weather Map
Tropical Storm Tracking
New forecast layout! Learn more

10-Day Weather Forecast

Advertisements
Track Severe Weather on mobile